sensor_id;sensor_type;location;lat;lon;timestamp;pressure;altitude;pressure_sealevel;temperature;humidity
71770;BME280;59605;52.122;5.420;2022-08-11T00:01:52;102468.31;;;22.80;52.79
71770;BME280;59605;52.122;5.420;2022-08-11T00:04:22;102461.38;;;22.79;52.88
71770;BME280;59605;52.122;5.420;2022-08-11T00:06:50;102467.50;;;22.79;52.53
71770;BME280;59605;52.122;5.420;2022-08-11T00:09:29;102466.63;;;22.79;52.42
71770;BME280;59605;52.122;5.420;2022-08-11T00:11:57;102469.25;;;22.79;52.80
71770;BME280;59605;52.122;5.420;2022-08-11T00:14:30;102476.28;;;22.78;52.75
71770;BME280;59605;52.122;5.420;2022-08-11T00:17:10;102460.56;;;22.78;52.87
71770;BME280;59605;52.122;5.420;2022-08-11T00:19:40;102471.13;;;22.77;52.98
71770;BME280;59605;52.122;5.420;2022-08-11T00:22:28;102464.94;;;22.78;52.72
71770;BME280;59605;52.122;5.420;2022-08-11T00:24:56;102471.13;;;22.77;52.47
71770;BME280;59605;52.122;5.420;2022-08-11T00:27:35;102479.00;;;22.77;52.73
71770;BME280;59605;52.122;5.420;2022-08-11T00:30:03;102477.31;;;22.76;52.80
71770;BME280;59605;52.122;5.420;2022-08-11T00:32:31;102472.81;;;22.78;52.69
71770;BME280;59605;52.122;5.420;2022-08-11T00:34:59;102468.53;;;22.77;53.16
71770;BME280;59605;52.122;5.420;2022-08-11T00:37:51;102466.00;;;22.75;52.57
71770;BME280;59605;52.122;5.420;2022-08-11T00:40:28;102477.31;;;22.76;52.88
71770;BME280;59605;52.122;5.420;2022-08-11T00:43:23;102470.28;;;22.76;52.82
71770;BME280;59605;52.122;5.420;2022-08-11T00:46:10;102472.06;;;22.76;52.77
71770;BME280;59605;52.122;5.420;2022-08-11T00:49:01;102472.06;;;22.76;52.85
71770;BME280;59605;52.122;5.420;2022-08-11T00:51:56;102471.25;;;22.75;53.19
71770;BME280;59605;52.122;5.420;2022-08-11T00:57:21;102482.56;;;22.76;52.88
71770;BME280;59605;52.122;5.420;2022-08-11T01:00:23;102487.91;;;22.74;53.06
71770;BME280;59605;52.122;5.420;2022-08-11T01:09:32;102482.66;;;22.74;53.14
71770;BME280;59605;52.122;5.420;2022-08-11T01:27:19;102459.25;;;22.71;53.35
71770;BME280;59605;52.122;5.420;2022-08-11T01:30:06;102454.94;;;22.70;53.63
71770;BME280;59605;52.122;5.420;2022-08-11T01:33:07;102461.13;;;22.69;53.30
71770;BME280;59605;52.122;5.420;2022-08-11T01:36:06;102459.34;;;22.70;53.27
71770;BME280;59605;52.122;5.420;2022-08-11T01:41:58;102460.09;;;22.72;53.61
71770;BME280;59605;52.122;5.420;2022-08-11T01:45:15;102462.81;;;22.70;53.78
71770;BME280;59605;52.122;5.420;2022-08-11T01:48:01;102468.03;;;22.70;53.53
71770;BME280;59605;52.122;5.420;2022-08-11T01:50:44;102457.66;;;22.69;53.49
71770;BME280;59605;52.122;5.420;2022-08-11T01:56:51;102460.28;;;22.69;53.69
71770;BME280;59605;52.122;5.420;2022-08-11T01:59:25;102468.16;;;22.69;53.60
71770;BME280;59605;52.122;5.420;2022-08-11T02:07:54;102463.84;;;22.67;53.50
71770;BME280;59605;52.122;5.420;2022-08-11T02:13:32;102456.94;;;22.66;53.32
71770;BME280;59605;52.122;5.420;2022-08-11T02:19:13;102459.56;;;22.66;53.30
71770;BME280;59605;52.122;5.420;2022-08-11T02:34:14;102456.06;;;22.66;53.11
71770;BME280;59605;52.122;5.420;2022-08-11T02:36:54;102450.09;;;22.64;53.08
71770;BME280;59605;52.122;5.420;2022-08-11T02:39:22;102452.72;;;22.64;53.50
71770;BME280;59605;52.122;5.420;2022-08-11T02:42:05;102451.88;;;22.63;53.22
71770;BME280;59605;52.122;5.420;2022-08-11T02:51:07;102449.25;;;22.63;53.19
71770;BME280;59605;52.122;5.420;2022-08-11T02:53:46;102455.44;;;22.62;53.49
71770;BME280;59605;52.122;5.420;2022-08-11T02:56:30;102460.69;;;22.62;53.21
71770;BME280;59605;52.122;5.420;2022-08-11T02:59:10;102448.50;;;22.61;53.51
71770;BME280;59605;52.122;5.420;2022-08-11T03:02:14;102445.03;;;22.61;53.30
71770;BME280;59605;52.122;5.420;2022-08-11T03:13:42;102439.03;;;22.59;53.15
71770;BME280;59605;52.122;5.420;2022-08-11T03:20:02;102438.13;;;22.60;53.21
71770;BME280;59605;52.122;5.420;2022-08-11T03:22:54;102440.84;;;22.58;53.50
71770;BME280;59605;52.122;5.420;2022-08-11T03:28:09;102439.91;;;22.59;53.30
71770;BME280;59605;52.122;5.420;2022-08-11T03:30:49;102438.22;;;22.58;53.21
71770;BME280;59605;52.122;5.420;2022-08-11T03:33:22;102439.91;;;22.59;53.13
71770;BME280;59605;52.122;5.420;2022-08-11T03:36:22;102442.63;;;22.58;53.31
71770;BME280;59605;52.122;5.420;2022-08-11T04:01:51;102436.72;;;22.54;53.35
71770;BME280;59605;52.122;5.420;2022-08-11T04:07:41;102428.84;;;22.54;53.24
71770;BME280;59605;52.122;5.420;2022-08-11T04:13:21;102435.06;;;22.53;53.18
71770;BME280;59605;52.122;5.420;2022-08-11T04:19:01;102428.03;;;22.54;53.18
71770;BME280;59605;52.122;5.420;2022-08-11T04:27:18;102424.66;;;22.52;53.17
71770;BME280;59605;52.122;5.420;2022-08-11T04:30:15;102434.19;;;22.53;53.36
71770;BME280;59605;52.122;5.420;2022-08-11T04:32:55;102418.47;;;22.53;53.19
71770;BME280;59605;52.122;5.420;2022-08-11T04:35:38;102415.13;;;22.51;53.04
71770;BME280;59605;52.122;5.420;2022-08-11T04:41:19;102422.03;;;22.52;53.31
71770;BME280;59605;52.122;5.420;2022-08-11T04:44:30;102422.03;;;22.52;53.28
71770;BME280;59605;52.122;5.420;2022-08-11T04:47:24;102425.59;;;22.51;53.30
71770;BME280;59605;52.122;5.420;2022-08-11T04:54:12;102428.22;;;22.51;53.19
71770;BME280;59605;52.122;5.420;2022-08-11T04:57:08;102424.75;;;22.50;53.47
71770;BME280;59605;52.122;5.420;2022-08-11T05:00:05;102415.22;;;22.49;53.29
71770;BME280;59605;52.122;5.420;2022-08-11T05:03:08;102420.47;;;22.49;53.26
71770;BME280;59605;52.122;5.420;2022-08-11T05:16:58;102419.59;;;22.48;53.25
71770;BME280;59605;52.122;5.420;2022-08-11T05:19:45;102421.28;;;22.49;53.62
71770;BME280;59605;52.122;5.420;2022-08-11T05:22:31;102418.75;;;22.48;53.44
71770;BME280;59605;52.122;5.420;2022-08-11T05:25:26;102416.53;;;22.42;53.83
71770;BME280;59605;52.122;5.420;2022-08-11T05:28:53;102422.16;;;22.36;53.79
71770;BME280;59605;52.122;5.420;2022-08-11T05:31:50;102431.09;;;22.31;53.98
71770;BME280;59605;52.122;5.420;2022-08-11T05:34:50;102428.50;;;22.31;54.12
71770;BME280;59605;52.122;5.420;2022-08-11T05:37:32;102427.19;;;22.24;53.97
71770;BME280;59605;52.122;5.420;2022-08-11T05:40:08;102438.66;;;22.07;54.72
71770;BME280;59605;52.122;5.420;2022-08-11T05:42:59;102443.88;;;21.93;55.49
71770;BME280;59605;52.122;5.420;2022-08-11T05:45:56;102440.03;;;21.84;55.27
71770;BME280;59605;52.122;5.420;2022-08-11T05:48:42;102438.56;;;21.80;55.55
71770;BME280;59605;52.122;5.420;2022-08-11T05:51:35;102442.28;;;21.76;56.17
71770;BME280;59605;52.122;5.420;2022-08-11T05:54:31;102444.03;;;21.75;56.03
71770;BME280;59605;52.122;5.420;2022-08-11T05:57:21;102446.00;;;21.72;56.35
71770;BME280;59605;52.122;5.420;2022-08-11T06:00:09;102450.41;;;21.71;56.77
71770;BME280;59605;52.122;5.420;2022-08-11T06:02:41;102447.03;;;21.69;56.30
71770;BME280;59605;52.122;5.420;2022-08-11T06:05:09;102443.50;;;21.70;57.01
71770;BME280;59605;52.122;5.420;2022-08-11T06:07:37;102446.09;;;21.70;56.97
71770;BME280;59605;52.122;5.420;2022-08-11T06:10:25;102447.78;;;21.71;57.06
71770;BME280;59605;52.122;5.420;2022-08-11T06:12:53;102453.88;;;21.72;56.86
71770;BME280;59605;52.122;5.420;2022-08-11T06:15:21;102452.00;;;21.74;57.12
71770;BME280;59605;52.122;5.420;2022-08-11T06:17:48;102451.06;;;21.75;57.30
71770;BME280;59605;52.122;5.420;2022-08-11T06:20:17;102451.81;;;21.77;57.32
71770;BME280;59605;52.122;5.420;2022-08-11T06:22:49;102449.94;;;21.79;57.10
71770;BME280;59605;52.122;5.420;2022-08-11T06:25:20;102442.94;;;21.79;57.45
71770;BME280;59605;52.122;5.420;2022-08-11T06:27:54;102447.25;;;21.81;57.33
71770;BME280;59605;52.122;5.420;2022-08-11T06:30:33;102442.75;;;21.83;57.44
71770;BME280;59605;52.122;5.420;2022-08-11T06:33:01;102436.41;;;21.87;57.11
71770;BME280;59605;52.122;5.420;2022-08-11T06:38:14;102438.94;;;21.88;57.35
71770;BME280;59605;52.122;5.420;2022-08-11T06:41:01;102443.44;;;21.86;57.41
71770;BME280;59605;52.122;5.420;2022-08-11T06:43:51;102441.63;;;21.87;57.17
71770;BME280;59605;52.122;5.420;2022-08-11T06:46:30;102439.75;;;21.89;57.48
71770;BME280;59605;52.122;5.420;2022-08-11T06:48:59;102442.31;;;21.90;57.13
71770;BME280;59605;52.122;5.420;2022-08-11T06:51:27;102450.91;;;21.92;57.73
71770;BME280;59605;52.122;5.420;2022-08-11T06:53:59;102433.41;;;21.93;57.46
71770;BME280;59605;52.122;5.420;2022-08-11T06:56:37;102436.91;;;21.93;57.45
71770;BME280;59605;52.122;5.420;2022-08-11T06:59:44;102434.19;;;21.95;57.66
71770;BME280;59605;52.122;5.420;2022-08-11T07:02:42;102434.09;;;21.96;57.34
71770;BME280;59605;52.122;5.420;2022-08-11T07:05:21;102440.94;;;21.99;57.34
71770;BME280;59605;52.122;5.420;2022-08-11T07:11:19;102430.06;;;22.05;57.41
71770;BME280;59605;52.122;5.420;2022-08-11T07:14:09;102440.34;;;22.08;57.20
71770;BME280;59605;52.122;5.420;2022-08-11T07:16:59;102438.56;;;22.09;57.29
71770;BME280;59605;52.122;5.420;2022-08-11T07:19:28;102444.56;;;22.11;57.67
71770;BME280;59605;52.122;5.420;2022-08-11T07:22:14;102441.00;;;22.12;57.33
71770;BME280;59605;52.122;5.420;2022-08-11T07:25:04;102444.38;;;22.14;57.25
71770;BME280;59605;52.122;5.420;2022-08-11T07:28:03;102449.53;;;22.16;57.20
71770;BME280;59605;52.122;5.420;2022-08-11T07:31:07;102446.81;;;22.17;57.12
71770;BME280;59605;52.122;5.420;2022-08-11T07:34:01;102453.75;;;22.18;56.86
71770;BME280;59605;52.122;5.420;2022-08-11T07:36:41;102450.16;;;22.19;57.50
71770;BME280;59605;52.122;5.420;2022-08-11T07:39:18;102445.78;;;22.20;57.37
71770;BME280;59605;52.122;5.420;2022-08-11T07:41:46;102439.59;;;22.21;56.89
71770;BME280;59605;52.122;5.420;2022-08-11T07:44:15;102446.44;;;22.23;57.13
71770;BME280;59605;52.122;5.420;2022-08-11T07:46:45;102439.34;;;22.25;56.88
71770;BME280;59605;52.122;5.420;2022-08-11T07:49:34;102440.19;;;22.26;56.92
71770;BME280;59605;52.122;5.420;2022-08-11T07:52:20;102445.31;;;22.27;56.79
71770;BME280;59605;52.122;5.420;2022-08-11T07:54:56;102440.91;;;22.28;56.68
71770;BME280;59605;52.122;5.420;2022-08-11T07:57:25;102445.22;;;22.29;56.88
71770;BME280;59605;52.122;5.420;2022-08-11T08:00:36;102435.47;;;22.31;56.86
71770;BME280;59605;52.122;5.420;2022-08-11T08:03:28;102435.34;;;22.34;57.06
71770;BME280;59605;52.122;5.420;2022-08-11T08:06:20;102439.63;;;22.35;57.02
71770;BME280;59605;52.122;5.420;2022-08-11T08:09:07;102435.16;;;22.37;57.04
71770;BME280;59605;52.122;5.420;2022-08-11T08:11:52;102441.97;;;22.40;57.07
71770;BME280;59605;52.122;5.420;2022-08-11T08:14:38;102432.34;;;22.40;57.34
71770;BME280;59605;52.122;5.420;2022-08-11T08:17:26;102435.59;;;22.44;57.26
71770;BME280;59605;52.122;5.420;2022-08-11T08:20:44;102439.81;;;22.46;57.35
71770;BME280;59605;52.122;5.420;2022-08-11T08:23:10;102432.69;;;22.48;57.49
71770;BME280;59605;52.122;5.420;2022-08-11T08:25:39;102441.41;;;22.49;57.29
71770;BME280;59605;52.122;5.420;2022-08-11T08:28:18;102448.25;;;22.52;57.13
71770;BME280;59605;52.122;5.420;2022-08-11T08:30:48;102444.66;;;22.53;57.36
71770;BME280;59605;52.122;5.420;2022-08-11T08:33:23;102438.50;;;22.54;57.45
71770;BME280;59605;52.122;5.420;2022-08-11T08:35:59;102434.09;;;22.54;57.47
71770;BME280;59605;52.122;5.420;2022-08-11T08:38:41;102434.97;;;22.55;57.42
71770;BME280;59605;52.122;5.420;2022-08-11T08:41:09;102438.41;;;22.55;57.48
71770;BME280;59605;52.122;5.420;2022-08-11T08:43:43;102439.25;;;22.56;57.36
71770;BME280;59605;52.122;5.420;2022-08-11T08:46:17;102434.84;;;22.56;57.50
71770;BME280;59605;52.122;5.420;2022-08-11T08:48:45;102435.69;;;22.57;57.58
71770;BME280;59605;52.122;5.420;2022-08-11T08:51:12;102431.38;;;22.56;57.43
71770;BME280;59605;52.122;5.420;2022-08-11T08:54:20;102423.41;;;22.57;57.33
71770;BME280;59605;52.122;5.420;2022-08-11T08:56:51;102423.41;;;22.57;57.41
71770;BME280;59605;52.122;5.420;2022-08-11T08:59:20;102425.94;;;22.59;57.54
71770;BME280;59605;52.122;5.420;2022-08-11T09:01:54;102432.88;;;22.60;57.19
71770;BME280;59605;52.122;5.420;2022-08-11T09:04:23;102424.09;;;22.61;57.15
71770;BME280;59605;52.122;5.420;2022-08-11T09:06:52;102430.16;;;22.61;57.02
71770;BME280;59605;52.122;5.420;2022-08-11T09:09:19;102418.75;;;22.62;57.55
71770;BME280;59605;52.122;5.420;2022-08-11T09:11:47;102427.44;;;22.63;57.56
71770;BME280;59605;52.122;5.420;2022-08-11T09:14:25;102417.06;;;22.61;57.62
71770;BME280;59605;52.122;5.420;2022-08-11T09:17:17;102420.44;;;22.63;57.63
71770;BME280;59605;52.122;5.420;2022-08-11T09:19:45;102416.13;;;22.62;57.62
71770;BME280;59605;52.122;5.420;2022-08-11T09:22:22;102416.03;;;22.64;57.59
71770;BME280;59605;52.122;5.420;2022-08-11T09:25:07;102417.72;;;22.65;57.49
71770;BME280;59605;52.122;5.420;2022-08-11T09:27:52;102415.09;;;22.65;57.77
71770;BME280;59605;52.122;5.420;2022-08-11T09:30:23;102409.00;;;22.64;57.99
71770;BME280;59605;52.122;5.420;2022-08-11T09:33:03;102402.00;;;22.65;57.93
71770;BME280;59605;52.122;5.420;2022-08-11T09:35:33;102397.56;;;22.65;57.97
71770;BME280;59605;52.122;5.420;2022-08-11T09:38:04;102395.88;;;22.64;57.62
71770;BME280;59605;52.122;5.420;2022-08-11T09:40:50;102393.25;;;22.64;57.88
71770;BME280;59605;52.122;5.420;2022-08-11T09:43:23;102394.22;;;22.63;57.76
71770;BME280;59605;52.122;5.420;2022-08-11T09:46:08;102397.69;;;22.64;57.63
71770;BME280;59605;52.122;5.420;2022-08-11T09:48:42;102390.66;;;22.64;57.41
71770;BME280;59605;52.122;5.420;2022-08-11T09:51:10;102391.41;;;22.66;57.34
71770;BME280;59605;52.122;5.420;2022-08-11T09:53:40;102390.44;;;22.67;56.86
71770;BME280;59605;52.122;5.420;2022-08-11T09:56:15;102385.19;;;22.67;56.70
71770;BME280;59605;52.122;5.420;2022-08-11T09:59:02;102383.34;;;22.70;56.35
71770;BME280;59605;52.122;5.420;2022-08-11T10:01:31;102390.34;;;22.69;56.48
71770;BME280;59605;52.122;5.420;2022-08-11T10:04:03;102393.72;;;22.71;55.99
71770;BME280;59605;52.122;5.420;2022-08-11T10:06:33;102392.81;;;22.72;56.04
71770;BME280;59605;52.122;5.420;2022-08-11T10:09:22;102385.88;;;22.71;56.01
71770;BME280;59605;52.122;5.420;2022-08-11T10:11:53;102391.94;;;22.72;56.00
71770;BME280;59605;52.122;5.420;2022-08-11T10:14:24;102387.56;;;22.72;54.53
71770;BME280;59605;52.122;5.420;2022-08-11T10:17:12;102384.84;;;22.74;54.99
71770;BME280;59605;52.122;5.420;2022-08-11T10:19:41;102375.19;;;22.74;55.00
71770;BME280;59605;52.122;5.420;2022-08-11T10:22:08;102382.94;;;22.76;55.31
71770;BME280;59605;52.122;5.420;2022-08-11T10:25:05;102374.34;;;22.74;55.38
71770;BME280;59605;52.122;5.420;2022-08-11T10:27:50;102374.34;;;22.74;55.43
71770;BME280;59605;52.122;5.420;2022-08-11T10:30:45;102368.25;;;22.73;55.38
71770;BME280;59605;52.122;5.420;2022-08-11T10:33:32;102363.88;;;22.74;55.55
71770;BME280;59605;52.122;5.420;2022-08-11T10:36:26;102370.88;;;22.73;55.34
71770;BME280;59605;52.122;5.420;2022-08-11T10:38:55;102362.06;;;22.74;55.81
71770;BME280;59605;52.122;5.420;2022-08-11T10:41:24;102360.28;;;22.75;55.83
71770;BME280;59605;52.122;5.420;2022-08-11T10:44:47;102357.66;;;22.75;55.96
71770;BME280;59605;52.122;5.420;2022-08-11T10:47:16;102362.91;;;22.75;55.57
71770;BME280;59605;52.122;5.420;2022-08-11T10:50:11;102360.09;;;22.78;55.82
71770;BME280;59605;52.122;5.420;2022-08-11T10:52:58;102348.66;;;22.79;55.90
71770;BME280;59605;52.122;5.420;2022-08-11T10:55:45;102346.03;;;22.79;55.85
71770;BME280;59605;52.122;5.420;2022-08-11T10:58:31;102344.28;;;22.79;55.76
71770;BME280;59605;52.122;5.420;2022-08-11T11:01:29;102344.28;;;22.79;55.88
71770;BME280;59605;52.122;5.420;2022-08-11T11:04:03;102336.50;;;22.78;56.03
71770;BME280;59605;52.122;5.420;2022-08-11T11:06:35;102346.03;;;22.79;55.99
71770;BME280;59605;52.122;5.420;2022-08-11T11:09:23;102334.63;;;22.80;55.70
71770;BME280;59605;52.122;5.420;2022-08-11T11:11:53;102334.63;;;22.80;55.65
71770;BME280;59605;52.122;5.420;2022-08-11T11:14:41;102332.63;;;22.83;55.76
71770;BME280;59605;52.122;5.420;2022-08-11T11:17:38;102330.78;;;22.86;55.87
71770;BME280;59605;52.122;5.420;2022-08-11T11:20:32;102331.59;;;22.86;55.86
71770;BME280;59605;52.122;5.420;2022-08-11T11:23:13;102331.59;;;22.86;56.02
71770;BME280;59605;52.122;5.420;2022-08-11T11:31:49;102328.16;;;22.86;56.18
71770;BME280;59605;52.122;5.420;2022-08-11T11:37:21;102329.72;;;22.88;56.06
71770;BME280;59605;52.122;5.420;2022-08-11T11:39:49;102322.59;;;22.90;56.14
71770;BME280;59605;52.122;5.420;2022-08-11T11:42:16;102314.72;;;22.90;56.22
71770;BME280;59605;52.122;5.420;2022-08-11T11:44:44;102319.03;;;22.91;55.96
71770;BME280;59605;52.122;5.420;2022-08-11T11:47:12;102315.47;;;22.92;56.03
71770;BME280;59605;52.122;5.420;2022-08-11T11:49:41;102310.22;;;22.92;55.99
71770;BME280;59605;52.122;5.420;2022-08-11T11:52:18;102312.72;;;22.94;55.89
71770;BME280;59605;52.122;5.420;2022-08-11T11:54:46;102317.16;;;22.93;55.63
71770;BME280;59605;52.122;5.420;2022-08-11T11:57:16;102302.25;;;22.94;55.94
71770;BME280;59605;52.122;5.420;2022-08-11T12:00:06;102310.00;;;22.95;55.73
71770;BME280;59605;52.122;5.420;2022-08-11T12:03:01;102299.44;;;22.97;55.79
71770;BME280;59605;52.122;5.420;2022-08-11T12:05:30;102298.59;;;22.96;55.80
71770;BME280;59605;52.122;5.420;2022-08-11T12:08:00;102302.91;;;22.97;55.85
71770;BME280;59605;52.122;5.420;2022-08-11T12:10:48;102295.13;;;22.96;56.26
71770;BME280;59605;52.122;5.420;2022-08-11T12:13:17;102282.03;;;22.96;56.44
71770;BME280;59605;52.122;5.420;2022-08-11T12:16:03;102286.34;;;22.97;56.64
71770;BME280;59605;52.122;5.420;2022-08-11T12:18:52;102282.03;;;22.96;56.57
71770;BME280;59605;52.122;5.420;2022-08-11T12:21:19;102283.72;;;22.97;56.60
71770;BME280;59605;52.122;5.420;2022-08-11T12:23:47;102276.69;;;22.97;56.52
71770;BME280;59605;52.122;5.420;2022-08-11T12:26:33;102270.59;;;22.97;56.30
71770;BME280;59605;52.122;5.420;2022-08-11T12:29:34;102263.66;;;22.96;56.62
71770;BME280;59605;52.122;5.420;2022-08-11T12:32:05;102277.59;;;22.96;56.64
71770;BME280;59605;52.122;5.420;2022-08-11T12:34:32;102265.34;;;22.97;56.64
71770;BME280;59605;52.122;5.420;2022-08-11T12:37:00;102265.34;;;22.97;56.80
71770;BME280;59605;52.122;5.420;2022-08-11T12:39:34;102261.06;;;22.96;56.42
71770;BME280;59605;52.122;5.420;2022-08-11T12:42:41;102258.31;;;22.97;56.33
71770;BME280;59605;52.122;5.420;2022-08-11T12:45:33;102261.88;;;22.96;55.99
71770;BME280;59605;52.122;5.420;2022-08-11T12:48:06;102253.91;;;22.98;56.55
71770;BME280;59605;52.122;5.420;2022-08-11T12:51:17;102247.00;;;22.97;56.60
71770;BME280;59605;52.122;5.420;2022-08-11T12:57:19;102247.84;;;22.97;55.99
71770;BME280;59605;52.122;5.420;2022-08-11T13:00:09;102240.06;;;22.96;56.12
71770;BME280;59605;52.122;5.420;2022-08-11T13:02:54;102238.28;;;22.96;56.58
71770;BME280;59605;52.122;5.420;2022-08-11T13:05:41;102249.63;;;22.97;56.60
71770;BME280;59605;52.122;5.420;2022-08-11T13:08:11;102235.56;;;22.98;55.84
71770;BME280;59605;52.122;5.420;2022-08-11T13:10:39;102241.66;;;22.98;55.81
71770;BME280;59605;52.122;5.420;2022-08-11T13:13:25;102233.78;;;22.98;56.21
71770;BME280;59605;52.122;5.420;2022-08-11T13:16:12;102232.94;;;22.98;55.79
71770;BME280;59605;52.122;5.420;2022-08-11T13:18:40;102227.69;;;22.98;56.07
71770;BME280;59605;52.122;5.420;2022-08-11T13:21:12;102229.47;;;22.97;55.36
71770;BME280;59605;52.122;5.420;2022-08-11T13:23:48;102219.81;;;22.98;55.43
71770;BME280;59605;52.122;5.420;2022-08-11T13:26:28;102222.44;;;22.98;55.83
71770;BME280;59605;52.122;5.420;2022-08-11T13:29:18;102213.75;;;22.97;55.09
71770;BME280;59605;52.122;5.420;2022-08-11T13:31:45;102222.44;;;22.98;54.82
71770;BME280;59605;52.122;5.420;2022-08-11T13:34:14;102215.44;;;22.98;55.83
71770;BME280;59605;52.122;5.420;2022-08-11T13:36:41;102214.56;;;22.98;55.44
71770;BME280;59605;52.122;5.420;2022-08-11T13:39:09;102218.88;;;22.99;55.29
71770;BME280;59605;52.122;5.420;2022-08-11T13:41:36;102201.56;;;22.96;54.76
71770;BME280;59605;52.122;5.420;2022-08-11T13:44:07;102206.00;;;22.96;54.86
71770;BME280;59605;52.122;5.420;2022-08-11T13:46:35;102204.19;;;22.96;55.35
71770;BME280;59605;52.122;5.420;2022-08-11T13:49:02;102205.06;;;22.97;55.45
71770;BME280;59605;52.122;5.420;2022-08-11T13:51:30;102212.81;;;22.98;55.78
71770;BME280;59605;52.122;5.420;2022-08-11T13:54:05;102197.91;;;22.99;55.80
71770;BME280;59605;52.122;5.420;2022-08-11T13:56:36;102192.78;;;22.97;55.79
71770;BME280;59605;52.122;5.420;2022-08-11T13:59:07;102199.69;;;22.98;55.70
71770;BME280;59605;52.122;5.420;2022-08-11T14:01:37;102194.47;;;22.98;55.72
71770;BME280;59605;52.122;5.420;2022-08-11T14:04:28;102195.41;;;22.97;55.62
71770;BME280;59605;52.122;5.420;2022-08-11T14:06:59;102199.69;;;22.98;55.02
71770;BME280;59605;52.122;5.420;2022-08-11T14:09:31;102197.91;;;22.99;55.10
71770;BME280;59605;52.122;5.420;2022-08-11T14:12:02;102197.09;;;22.98;55.40
71770;BME280;59605;52.122;5.420;2022-08-11T14:15:02;102184.81;;;22.99;55.19
71770;BME280;59605;52.122;5.420;2022-08-11T14:17:35;102179.56;;;22.99;55.27
71770;BME280;59605;52.122;5.420;2022-08-11T14:20:16;102182.19;;;22.99;54.93
71770;BME280;59605;52.122;5.420;2022-08-11T14:23:04;102187.31;;;23.00;55.25
71770;BME280;59605;52.122;5.420;2022-08-11T14:25:30;102174.22;;;23.00;54.97
71770;BME280;59605;52.122;5.420;2022-08-11T14:28:17;102181.25;;;23.00;54.99
71770;BME280;59605;52.122;5.420;2022-08-11T14:31:03;102178.63;;;23.00;54.93
71770;BME280;59605;52.122;5.420;2022-08-11T14:33:31;102178.63;;;23.00;55.17
71770;BME280;59605;52.122;5.420;2022-08-11T14:36:20;102171.59;;;23.00;55.03
71770;BME280;59605;52.122;5.420;2022-08-11T14:38:48;102175.88;;;23.01;54.91
71770;BME280;59605;52.122;5.420;2022-08-11T14:41:16;102164.53;;;23.01;54.59
71770;BME280;59605;52.122;5.420;2022-08-11T14:44:23;102170.66;;;23.01;54.66
71770;BME280;59605;52.122;5.420;2022-08-11T14:47:11;102162.78;;;23.01;54.76
71770;BME280;59605;52.122;5.420;2022-08-11T14:49:53;102159.31;;;23.01;54.91
71770;BME280;59605;52.122;5.420;2022-08-11T14:52:38;102155.75;;;23.02;54.54
71770;BME280;59605;52.122;5.420;2022-08-11T14:55:09;102155.75;;;23.02;54.45
71770;BME280;59605;52.122;5.420;2022-08-11T14:57:54;102153.13;;;23.02;54.43
71770;BME280;59605;52.122;5.420;2022-08-11T15:00:31;102153.13;;;23.02;54.23
71770;BME280;59605;52.122;5.420;2022-08-11T15:03:00;102146.09;;;23.02;54.95
71770;BME280;59605;52.122;5.420;2022-08-11T15:05:51;102146.72;;;23.06;54.67
71770;BME280;59605;52.122;5.420;2022-08-11T15:08:26;102151.03;;;23.07;54.67
71770;BME280;59605;52.122;5.420;2022-08-11T15:11:13;102143.16;;;23.07;54.22
71770;BME280;59605;52.122;5.420;2022-08-11T15:14:00;102135.19;;;23.09;53.33
71770;BME280;59605;52.122;5.420;2022-08-11T15:16:28;102138.84;;;23.06;50.99
71770;BME280;59605;52.122;5.420;2022-08-11T15:19:14;102133.63;;;23.06;51.18
71770;BME280;59605;52.122;5.420;2022-08-11T15:21:41;102141.59;;;23.05;51.13
71770;BME280;59605;52.122;5.420;2022-08-11T15:24:26;102139.78;;;23.05;51.37
71770;BME280;59605;52.122;5.420;2022-08-11T15:26:57;102134.44;;;23.07;51.06
71770;BME280;59605;52.122;5.420;2022-08-11T15:29:45;102128.25;;;23.08;50.93
71770;BME280;59605;52.122;5.420;2022-08-11T15:32:32;102129.94;;;23.09;51.75
71770;BME280;59605;52.122;5.420;2022-08-11T15:35:19;102128.97;;;23.10;51.54
71770;BME280;59605;52.122;5.420;2022-08-11T15:38:06;102121.09;;;23.10;51.60
71770;BME280;59605;52.122;5.420;2022-08-11T15:40:38;102128.78;;;23.13;51.94
71770;BME280;59605;52.122;5.420;2022-08-11T15:43:27;102122.59;;;23.14;51.94
71770;BME280;59605;52.122;5.420;2022-08-11T15:46:22;102116.44;;;23.15;52.49
71770;BME280;59605;52.122;5.420;2022-08-11T15:48:57;102117.38;;;23.14;52.47
71770;BME280;59605;52.122;5.420;2022-08-11T15:51:33;102116.44;;;23.15;52.46
71770;BME280;59605;52.122;5.420;2022-08-11T15:54:10;102111.06;;;23.16;52.96
71770;BME280;59605;52.122;5.420;2022-08-11T15:56:40;102111.91;;;23.17;53.61
71770;BME280;59605;52.122;5.420;2022-08-11T15:59:08;102109.28;;;23.17;54.04
71770;BME280;59605;52.122;5.420;2022-08-11T16:02:11;102110.97;;;23.18;53.73
71770;BME280;59605;52.122;5.420;2022-08-11T16:04:58;102108.13;;;23.21;54.22
71770;BME280;59605;52.122;5.420;2022-08-11T16:07:30;102102.66;;;23.24;53.86
71770;BME280;59605;52.122;5.420;2022-08-11T16:10:05;102104.34;;;23.25;54.50
71770;BME280;59605;52.122;5.420;2022-08-11T16:13:02;102093.03;;;23.25;54.42
71770;BME280;59605;52.122;5.420;2022-08-11T16:15:37;102100.88;;;23.25;55.02
71770;BME280;59605;52.122;5.420;2022-08-11T16:18:32;102096.69;;;23.22;54.50
71770;BME280;59605;52.122;5.420;2022-08-11T16:21:12;102089.66;;;23.23;54.86
71770;BME280;59605;52.122;5.420;2022-08-11T16:23:59;102102.66;;;23.24;55.30
71770;BME280;59605;52.122;5.420;2022-08-11T16:26:28;102090.41;;;23.25;53.86
71770;BME280;59605;52.122;5.420;2022-08-11T16:29:15;102085.97;;;23.25;54.55
71770;BME280;59605;52.122;5.420;2022-08-11T16:31:44;102079.91;;;23.25;54.55